Auburn, WA

11:32 PM PST on December 18, 2014 (GMT -0800)
Renton Municipal | Change Station
CLOSE
Current Station
Airport
Location: Renton,
Elevation: 30 ft
Nearby Weather Stations

Elev 30 ft 47.49 °N, 122.22 °W | Updated 8 minutes ago

Rain
Rain
47 °F
Feels Like 47 °F
N
5
Wind Variable Wind from East

Today
High -- | Low -- °F
--% Chance of Precip.
Yesterday
High -- | Low -- °F
Precip. -- in
7:51 AM 4:20 PM
Waning Crescent, 9% visible
Pressure 29.78 in
Visibility 4.0 miles
Clouds Mostly Cloudy 1200 ft
Mostly Cloudy 1800 ft
Overcast 2500 ft
Dew Point 46 °F
Humidity 97%
Rainfall 0.30 in
Snow Depth Not available.
UV 0 out of 12
Pollen .70 out of 12
Air Quality Not available.
Flu Activity Not available.
SPECI KRNT 190724Z AUTO 10004KT 4SM RA BR BKN012 BKN018 OVC025 08/08 A2978 RMK AO2 P0007 T00830078

More Conditions Fewer Conditions

Pressure 29.78 in
Visibility 4.0 miles
Clouds Mostly Cloudy 1200 ft
Mostly Cloudy 1800 ft
Overcast 2500 ft
Dew Point 46 °F
Humidity 97%
Rainfall 0.30 in
Snow Depth Not available.
UV 0 out of 12
Pollen .70 out of 12
Air Quality Not available.
Flu Activity Not available.
SPECI KRNT 190724Z AUTO 10004KT 4SM RA BR BKN012 BKN018 OVC025 08/08 A2978 RMK AO2 P0007 T00830078

More Conditions Fewer Conditions

10-Day Weather Forecast

Almanac

Astronomy

Dec. 18, 2014 Rise Set
Actual Time
Civil Twilight
Nautical Twilight
Astronomical Twilight
Moon
Length of Visible Light
Length of Day
Tomorrow will be .
, % of the Moon is Illuminated

Today's Extremes

State Highs State Lows

Community

WunderPhotos

Upload Photos

1,778,953 photos uploaded!

WunderBlogs® & News

Nearby

Air Quality

  Air Quality AQ Index Pollutant
Not available.

Snow Depth

Station Depth Elevation

Earthquake Activity

City Distance Mag. Time & Date
Minimum magnitude displayed is 2.5.

Coastal Water Temperatures

Place Temperature

Nearby Weather Stations